createdAt,value
2023-07-25T00:02:31.161Z,100.00
2023-07-25T00:07:33.474Z,100.00
2023-07-25T00:12:39.469Z,100.00
2023-07-25T00:17:41.729Z,100.00
2023-07-25T00:22:43.888Z,100.00
2023-07-25T00:27:46.230Z,100.00
2023-07-25T00:32:48.557Z,100.00
2023-07-25T00:37:51.005Z,100.00
2023-07-25T00:42:57.239Z,100.00
2023-07-25T00:47:59.480Z,100.00
2023-07-25T00:53:03.692Z,100.00
2023-07-25T00:58:05.877Z,100.00
2023-07-25T01:03:08.380Z,100.00
2023-07-25T01:08:10.916Z,100.00
2023-07-25T01:13:13.135Z,100.00
2023-07-25T01:18:16.118Z,100.00
2023-07-25T01:23:21.087Z,100.00
2023-07-25T01:28:25.272Z,100.00
2023-07-25T01:33:27.612Z,100.00
2023-07-25T01:38:29.802Z,100.00
2023-07-25T01:43:32.141Z,100.00
2023-07-25T01:48:34.243Z,100.00
2023-07-25T01:53:36.444Z,100.00
2023-07-25T01:58:38.752Z,100.00
2023-07-25T02:03:40.921Z,100.00
2023-07-25T02:08:43.114Z,100.00
2023-07-25T02:13:45.261Z,100.00
2023-07-25T02:18:47.403Z,100.00
2023-07-25T02:23:49.763Z,100.00
2023-07-25T02:28:52.233Z,100.00
2023-07-25T02:33:55.611Z,100.00
2023-07-25T02:38:57.806Z,100.00
2023-07-25T02:44:01.053Z,100.00
2023-07-25T02:49:03.300Z,100.00
2023-07-25T02:54:05.792Z,100.00
2023-07-25T02:59:08.016Z,100.00
2023-07-25T03:04:10.250Z,100.00
2023-07-25T03:09:12.571Z,100.00
2023-07-25T03:14:14.812Z,100.00
2023-07-25T03:19:17.129Z,100.00
2023-07-25T03:24:19.305Z,100.00
2023-07-25T03:29:21.953Z,100.00
2023-07-25T03:34:24.210Z,100.00
2023-07-25T03:39:26.379Z,100.00
2023-07-25T03:44:28.525Z,100.00
2023-07-25T03:49:30.729Z,100.00
2023-07-25T03:54:32.956Z,100.00
2023-07-25T03:59:35.176Z,100.00
2023-07-25T04:04:37.434Z,100.00
2023-07-25T04:09:39.645Z,100.00
2023-07-25T04:14:42.360Z,100.00
2023-07-25T04:19:44.583Z,100.00
2023-07-25T04:24:46.788Z,100.00
2023-07-25T04:29:48.960Z,100.00
2023-07-25T04:34:51.409Z,100.00
2023-07-25T04:39:53.906Z,100.00
2023-07-25T04:44:58.720Z,100.00
2023-07-25T04:50:01.207Z,100.00
2023-07-25T04:55:03.436Z,100.00
2023-07-25T05:00:07.636Z,100.00
2023-07-25T05:05:10.184Z,100.00
2023-07-25T05:10:12.432Z,100.00
2023-07-25T05:15:14.685Z,100.00
2023-07-25T05:20:17.057Z,100.00
2023-07-25T05:25:19.281Z,100.00
2023-07-25T05:30:21.666Z,100.00
2023-07-25T05:35:24.096Z,100.00
2023-07-25T05:40:26.242Z,100.00
2023-07-25T05:45:28.404Z,100.00
2023-07-25T05:50:30.586Z,100.00
2023-07-25T05:55:32.726Z,100.00
2023-07-25T06:00:34.853Z,100.00
2023-07-25T06:05:37.008Z,100.00
2023-07-25T06:10:40.841Z,100.00
2023-07-25T06:15:43.043Z,100.00
2023-07-25T06:20:48.298Z,100.00
2023-07-25T06:25:50.490Z,100.00
2023-07-25T06:30:53.218Z,100.00
2023-07-25T06:35:55.734Z,100.00
2023-07-25T06:40:58.386Z,100.00
2023-07-25T06:46:01.487Z,100.00
2023-07-25T06:51:04.133Z,100.00
2023-07-25T06:56:06.302Z,100.00
2023-07-25T07:01:08.487Z,100.00
2023-07-25T07:06:10.685Z,100.00
2023-07-25T07:11:12.821Z,100.00
2023-07-25T07:16:15.793Z,100.00
2023-07-25T07:21:17.943Z,100.00
2023-07-25T07:26:20.210Z,100.00
2023-07-25T07:31:24.870Z,100.00
2023-07-25T07:36:27.202Z,100.00
2023-07-25T07:41:29.566Z,100.00
2023-07-25T07:46:34.233Z,100.00
2023-07-25T07:51:36.443Z,100.00
2023-07-25T07:56:42.040Z,100.00
2023-07-25T08:01:50.070Z,100.00
2023-07-25T08:06:57.053Z,100.00
2023-07-25T08:12:00.024Z,100.00
2023-07-25T08:17:02.305Z,100.00
2023-07-25T08:22:04.904Z,100.00
2023-07-25T08:27:08.686Z,100.00
2023-07-25T08:32:14.603Z,100.00
2023-07-25T08:37:27.217Z,100.00
2023-07-25T08:42:38.820Z,100.00
2023-07-25T08:47:47.262Z,100.00
2023-07-25T08:52:58.175Z,100.00
2023-07-25T08:58:01.651Z,100.00
2023-07-25T09:03:09.774Z,100.00
2023-07-25T09:08:28.309Z,100.00
2023-07-25T09:13:32.338Z,100.00
2023-07-25T09:18:39.366Z,100.00
2023-07-25T09:23:54.992Z,100.00
2023-07-25T09:29:01.499Z,100.00
2023-07-25T09:34:22.240Z,100.00
2023-07-25T09:39:24.725Z,100.00
2023-07-25T09:50:07.150Z,100.00
2023-07-25T09:55:14.472Z,100.00
2023-07-25T10:00:21.382Z,99.12
2023-07-25T10:05:25.417Z,100.00
2023-07-25T10:10:32.690Z,100.00
2023-07-25T10:15:35.745Z,91.76
2023-07-25T10:20:38.685Z,95.56
2023-07-25T10:25:40.913Z,90.24
2023-07-25T10:30:47.305Z,84.28
2023-07-25T10:35:57.712Z,88.91
2023-07-25T10:41:20.326Z,97.43
2023-07-25T10:46:35.759Z,94.49
2023-07-25T10:51:57.507Z,100.00
2023-07-25T10:57:24.226Z,100.00
2023-07-25T11:02:41.633Z,100.00
2023-07-25T11:07:56.300Z,100.00
2023-07-25T11:13:06.948Z,100.00
2023-07-25T11:18:12.133Z,82.55
2023-07-25T11:23:15.070Z,79.76
2023-07-25T11:28:18.060Z,73.77
2023-07-25T11:33:21.817Z,66.57
2023-07-25T11:38:26.265Z,62.02
2023-07-25T11:43:31.771Z,72.30
2023-07-25T11:48:34.304Z,70.65
2023-07-25T11:53:39.555Z,69.51
2023-07-25T11:58:51.260Z,67.37
2023-07-25T12:03:54.137Z,75.70
2023-07-25T12:09:01.934Z,79.90
2023-07-25T12:14:05.648Z,83.10
2023-07-25T12:19:24.587Z,81.23
2023-07-25T12:24:26.943Z,79.05
2023-07-25T12:29:29.287Z,87.80
2023-07-25T12:34:31.573Z,97.44
2023-07-25T12:39:33.728Z,93.48
2023-07-25T12:44:35.938Z,87.68
2023-07-25T12:49:39.473Z,68.34
2023-07-25T12:54:44.096Z,61.28
2023-07-25T12:59:46.273Z,60.40
2023-07-25T13:05:01.218Z,64.64
2023-07-25T13:10:03.660Z,70.87
2023-07-25T13:15:07.354Z,74.96
2023-07-25T13:20:10.252Z,74.06
2023-07-25T13:25:22.086Z,76.50
2023-07-25T13:30:25.993Z,80.88
2023-07-25T13:35:28.254Z,82.00
2023-07-25T13:40:30.627Z,81.59
2023-07-25T13:45:46.037Z,83.03
2023-07-25T13:50:55.335Z,83.55
2023-07-25T13:56:02.084Z,84.35
2023-07-25T14:01:09.224Z,84.55
2023-07-25T14:06:13.549Z,84.45
2023-07-25T14:11:22.027Z,84.63
2023-07-25T14:16:24.599Z,85.16
2023-07-25T14:21:37.043Z,86.88
2023-07-25T14:26:39.458Z,89.39
2023-07-25T14:31:52.134Z,88.02
2023-07-25T14:36:56.851Z,83.90
2023-07-25T14:42:02.094Z,81.12
2023-07-25T14:47:07.013Z,79.03
2023-07-25T14:52:11.912Z,77.44
2023-07-25T14:57:21.927Z,72.40
2023-07-25T15:02:27.397Z,72.98
2023-07-25T15:07:33.010Z,84.65
2023-07-25T15:12:35.519Z,79.86
2023-07-25T15:17:37.972Z,81.58
2023-07-25T15:22:42.731Z,79.95
2023-07-25T15:27:49.394Z,79.75
2023-07-25T15:32:54.090Z,81.73
2023-07-25T15:37:58.846Z,80.54
2023-07-25T15:43:09.643Z,90.85
2023-07-25T15:48:24.578Z,94.62
2023-07-25T15:53:29.170Z,100.00
2023-07-25T15:58:34.014Z,100.00
2023-07-25T16:03:44.848Z,100.00
2023-07-25T16:08:50.199Z,100.00
2023-07-25T16:13:56.128Z,100.00
2023-07-25T16:18:58.339Z,100.00
2023-07-25T16:24:00.578Z,100.00
2023-07-25T16:29:02.819Z,100.00
2023-07-25T16:39:44.750Z,100.00
2023-07-25T16:45:20.365Z,100.00
2023-07-25T16:50:25.729Z,100.00
2023-07-25T16:55:31.267Z,100.00
2023-07-25T17:00:58.768Z,100.00
2023-07-25T17:06:06.780Z,100.00
2023-07-25T17:11:12.815Z,96.33
2023-07-25T17:16:20.789Z,90.04
2023-07-25T17:21:34.114Z,88.34
2023-07-25T17:26:42.026Z,88.23
2023-07-25T17:31:46.571Z,85.22
2023-07-25T17:36:48.730Z,87.08
2023-07-25T17:41:51.032Z,89.31
2023-07-25T17:46:53.384Z,89.49
2023-07-25T17:51:55.845Z,92.62
2023-07-25T17:57:03.298Z,92.37
2023-07-25T18:02:07.202Z,93.42
2023-07-25T18:07:09.424Z,89.29
2023-07-25T18:12:16.634Z,96.00
2023-07-25T18:17:18.861Z,90.96
2023-07-25T18:22:22.455Z,93.77
2023-07-25T18:27:40.138Z,92.79
2023-07-25T18:32:43.449Z,95.90
2023-07-25T18:37:53.430Z,90.11
2023-07-25T18:42:56.062Z,97.09
2023-07-25T18:48:00.729Z,100.00
2023-07-25T18:53:02.922Z,100.00
2023-07-25T18:58:07.501Z,100.00
2023-07-25T19:03:09.769Z,100.00
2023-07-25T19:08:11.955Z,100.00
2023-07-25T19:13:14.108Z,100.00
2023-07-25T19:18:16.862Z,100.00
2023-07-25T19:23:26.462Z,100.00
2023-07-25T19:28:30.364Z,100.00
2023-07-25T19:33:34.348Z,100.00
2023-07-25T19:38:40.731Z,100.00
2023-07-25T19:43:48.846Z,100.00
2023-07-25T19:48:53.276Z,100.00
2023-07-25T19:53:56.062Z,100.00
2023-07-25T19:59:06.298Z,100.00
2023-07-25T20:04:11.667Z,100.00
2023-07-25T20:09:14.224Z,100.00
2023-07-25T20:14:18.685Z,100.00
2023-07-25T20:19:27.382Z,100.00
2023-07-25T20:24:35.654Z,100.00
2023-07-25T20:29:37.870Z,100.00
2023-07-25T20:34:46.320Z,100.00
2023-07-25T20:39:48.576Z,100.00
2023-07-25T20:44:53.254Z,100.00
2023-07-25T20:50:00.161Z,100.00
2023-07-25T20:55:05.050Z,100.00
2023-07-25T21:00:11.014Z,100.00
2023-07-25T21:05:13.450Z,100.00
2023-07-25T21:10:15.646Z,100.00
2023-07-25T21:15:23.150Z,100.00
2023-07-25T21:20:29.112Z,100.00
2023-07-25T21:31:12.359Z,100.00
2023-07-25T21:36:15.067Z,100.00
2023-07-25T21:41:17.388Z,100.00
2023-07-25T21:46:19.707Z,100.00
2023-07-25T21:51:21.896Z,100.00
2023-07-25T21:56:24.258Z,100.00
2023-07-25T22:01:26.722Z,100.00
2023-07-25T22:06:30.012Z,100.00
2023-07-25T22:11:32.655Z,100.00
2023-07-25T22:16:35.333Z,100.00
2023-07-25T22:21:37.945Z,100.00
2023-07-25T22:26:40.104Z,100.00
2023-07-25T22:31:42.299Z,100.00
2023-07-25T22:36:44.549Z,100.00
2023-07-25T22:41:46.712Z,100.00
2023-07-25T22:46:48.870Z,100.00
2023-07-25T22:51:51.070Z,100.00
2023-07-25T22:56:53.479Z,100.00
2023-07-25T23:01:56.048Z,100.00
2023-07-25T23:06:58.340Z,100.00
2023-07-25T23:12:00.699Z,100.00
2023-07-25T23:17:02.969Z,100.00
2023-07-25T23:22:05.237Z,100.00
2023-07-25T23:27:08.268Z,100.00
2023-07-25T23:32:12.030Z,100.00
2023-07-25T23:37:14.482Z,100.00
2023-07-25T23:42:16.798Z,100.00
2023-07-25T23:47:18.983Z,100.00
2023-07-25T23:52:21.151Z,100.00
2023-07-25T23:57:23.447Z,100.00
